Time;durP1;ratioP1;P1;durP2;ratioP2;P2;SDS_P1;SDS_P2;PMS_P1;PMS_P2;Temp;Humidity;BMP_temperature;BMP_pressure;BME280_temperature;BME280_humidity;BME280_pressure;Samples;Min_cycle;Max_cycle;Signal;HPM_P1;HPM_P2
2021/03/03 00:02:10;;;;;;;;;;;1.80;99.90;;;;;;5057795;28;19917;-65
2021/03/03 00:04:35;;;;;;;;;;;1.70;99.90;;;;;;5049548;28;19959;-64
2021/03/03 00:07:01;;;;;;;;;;;1.70;99.90;;;;;;5047466;28;19986;-65
2021/03/03 00:09:26;;;;;;;;;;;1.50;99.90;;;;;;5063460;28;19944;-65
2021/03/03 00:11:52;;;;;;;;;;;1.50;99.90;;;;;;5060802;28;20457;-65
2021/03/03 00:14:17;;;;;;;;;;;1.30;99.90;;;;;;5055611;28;19916;-64
2021/03/03 00:16:43;;;;;;;;;;;1.30;99.90;;;;;;5050567;28;19935;-64
2021/03/03 00:19:08;;;;;;;;;;;1.30;99.90;;;;;;5049057;28;20027;-64
2021/03/03 00:21:34;;;;;;;;;;;1.20;99.90;;;;;;5046538;28;19917;-64
2021/03/03 00:23:59;;;;;;;;;;;1.20;99.90;;;;;;5049546;28;20331;-64
2021/03/03 00:26:27;;;;;;;;;;;1.20;99.90;;;;;;5042584;28;19967;-63
2021/03/03 00:28:53;;;;;;;;;;;1.30;99.90;;;;;;5066226;28;19924;-65
2021/03/03 00:31:19;;;;;;;;;;;1.10;99.90;;;;;;5060312;28;20019;-64
2021/03/03 00:33:44;;;;;;;;;;;1.40;99.90;;;;;;5046530;28;20015;-65
2021/03/03 00:36:10;;;;;;;;;;;1.10;99.90;;;;;;5037288;28;19917;-64
2021/03/03 00:38:35;;;;;;;;;;;1.10;99.90;;;;;;5058215;28;19970;-65
2021/03/03 00:41:01;;;;;;;;;;;1.00;99.90;;;;;;5048083;28;20215;-63
2021/03/03 00:43:26;;;;;;;;;;;0.90;99.90;;;;;;5049214;28;19990;-63
2021/03/03 00:45:52;;;;;;;;;;;1.10;99.90;;;;;;5060530;28;19970;-64
2021/03/03 00:48:17;;;;;;;;;;;1.00;99.90;;;;;;5066507;28;19920;-63
2021/03/03 00:50:43;;;;;;;;;;;1.00;99.90;;;;;;5054547;28;19916;-64
2021/03/03 00:53:09;;;;;;;;;;;1.00;99.90;;;;;;5049491;28;19967;-64
2021/03/03 00:55:34;;;;;;;;;;;0.70;99.90;;;;;;5047156;28;19996;-63
2021/03/03 00:58:00;;;;;;;;;;;0.70;99.90;;;;;;5062273;28;20021;-64
2021/03/03 01:00:26;;;;;;;;;;;1.10;99.90;;;;;;5047711;28;20019;-64
2021/03/03 01:02:51;;;;;;;;;;;0.90;99.90;;;;;;5055404;28;19917;-64
2021/03/03 01:05:17;;;;;;;;;;;0.90;99.90;;;;;;5066016;28;19920;-64
2021/03/03 01:07:42;;;;;;;;;;;0.80;99.90;;;;;;5046082;28;19921;-63
2021/03/03 01:10:08;;;;;;;;;;;0.20;99.90;;;;;;5060276;28;19920;-63
2021/03/03 01:12:33;;;;;;;;;;;0.70;99.90;;;;;;5051389;28;19916;-64
2021/03/03 01:14:59;;;;;;;;;;;0.30;99.90;;;;;;5055024;28;20323;-63
2021/03/03 01:17:24;;;;;;;;;;;0.70;99.90;;;;;;5065080;28;20011;-64
2021/03/03 01:19:50;;;;;;;;;;;0.80;99.90;;;;;;5045347;28;19913;-64
2021/03/03 01:22:15;;;;;;;;;;;0.80;99.90;;;;;;5059885;28;19913;-63
2021/03/03 01:24:41;;;;;;;;;;;0.90;99.90;;;;;;5048407;28;19918;-64
2021/03/03 01:27:06;;;;;;;;;;;0.70;99.90;;;;;;5040566;28;20387;-64
2021/03/03 01:29:34;;;;;;;;;;;1.00;99.90;;;;;;5048892;28;19913;-64
2021/03/03 01:31:59;;;;;;;;;;;0.60;99.90;;;;;;5056330;28;19917;-63
2021/03/03 01:34:25;;;;;;;;;;;0.50;99.90;;;;;;5058248;28;20008;-64
2021/03/03 01:36:51;;;;;;;;;;;0.60;99.90;;;;;;5045147;28;19918;-64
2021/03/03 01:39:16;;;;;;;;;;;0.60;99.90;;;;;;5054856;28;19913;-64
2021/03/03 01:41:41;;;;;;;;;;;0.70;99.90;;;;;;5045606;28;19932;-64
2021/03/03 01:44:09;;;;;;;;;;;0.50;99.90;;;;;;5044850;28;19927;-64
2021/03/03 01:46:35;;;;;;;;;;;0.10;99.90;;;;;;5046647;28;19920;-63
2021/03/03 01:49:00;;;;;;;;;;;0.60;99.90;;;;;;5064131;28;19975;-64
2021/03/03 01:51:26;;;;;;;;;;;0.50;99.90;;;;;;5055884;28;19916;-64
2021/03/03 01:53:55;;;;;;;;;;;0.50;99.90;;;;;;5061029;28;20012;-64
2021/03/03 01:56:20;;;;;;;;;;;0.20;99.90;;;;;;5045152;28;19917;-63
2021/03/03 01:58:46;;;;;;;;;;;0.40;99.90;;;;;;5057576;28;19921;-64
2021/03/03 02:01:11;;;;;;;;;;;0.70;99.90;;;;;;5065478;28;19917;-64
2021/03/03 02:03:38;;;;;;;;;;;0.30;99.90;;;;;;5055550;28;19919;-64
2021/03/03 02:06:07;;;;;;;;;;;0.60;99.90;;;;;;5046079;28;19959;-64
2021/03/03 02:08:34;;;;;;;;;;;;;;;;;;5047427;28;20284;-64
2021/03/03 02:11:23;;;;;;;;;;;-0.10;99.90;;;;;;5057042;28;20384;-63
2021/03/03 02:13:56;;;;;;;;;;;0.20;99.90;;;;;;5047796;28;20165;-63
2021/03/03 02:16:22;;;;;;;;;;;0.20;99.90;;;;;;5042808;28;19916;-64
2021/03/03 02:18:48;;;;;;;;;;;;;;;;;;5058005;28;20110;-63
2021/03/03 02:21:13;;;;;;;;;;;;;;;;;;5050958;28;19981;-64
2021/03/03 02:23:45;;;;;;;;;;;0.20;99.90;;;;;;5052532;28;20210;-63
2021/03/03 02:26:11;;;;;;;;;;;;;;;;;;5039752;28;19920;-64
2021/03/03 02:28:37;;;;;;;;;;;;;;;;;;5045594;28;19917;-63
2021/03/03 02:31:03;;;;;;;;;;;0.00;99.90;;;;;;5058778;28;19921;-64
2021/03/03 02:33:29;;;;;;;;;;;0.10;99.90;;;;;;5049769;28;19967;-64
2021/03/03 02:35:55;;;;;;;;;;;0.00;99.90;;;;;;5055150;28;20396;-64
2021/03/03 02:38:20;;;;;;;;;;;0.00;99.90;;;;;;5064808;28;20182;-64
2021/03/03 02:40:46;;;;;;;;;;;0.00;99.90;;;;;;5047601;28;19917;-64
2021/03/03 02:43:13;;;;;;;;;;;0.00;99.90;;;;;;5060513;28;19966;-65
2021/03/03 02:45:39;;;;;;;;;;;;;;;;;;5068118;28;20733;-65
2021/03/03 02:48:06;;;;;;;;;;;-0.10;99.90;;;;;;5043847;28;19917;-65
2021/03/03 02:50:31;;;;;;;;;;;0.00;99.90;;;;;;5062781;28;19975;-64
2021/03/03 02:52:57;;;;;;;;;;;;;;;;;;5051616;28;19971;-63
2021/03/03 02:55:23;;;;;;;;;;;;;;;;;;5058836;28;19942;-64
2021/03/03 02:57:49;;;;;;;;;;;;;;;;;;5051920;28;19925;-65
2021/03/03 03:00:26;;;;;;;;;;;-0.30;99.90;;;;;;5050441;28;20021;-64
2021/03/03 03:02:52;;;;;;;;;;;-0.30;99.90;;;;;;5068345;28;19912;-64
2021/03/03 03:05:19;;;;;;;;;;;-0.20;99.90;;;;;;5049881;28;19916;-65
2021/03/03 03:07:47;;;;;;;;;;;-0.20;99.90;;;;;;5062656;28;20425;-64
2021/03/03 03:10:14;;;;;;;;;;;-0.20;99.90;;;;;;5054696;28;19913;-65
2021/03/03 03:12:42;;;;;;;;;;;0.10;99.90;;;;;;5063759;28;19923;-64
2021/03/03 03:15:08;;;;;;;;;;;-0.10;99.90;;;;;;5066387;28;19913;-64
2021/03/03 03:17:35;;;;;;;;;;;-0.20;99.90;;;;;;5053705;28;19949;-64
2021/03/03 03:20:00;;;;;;;;;;;-0.10;99.90;;;;;;5059703;28;20491;-64
2021/03/03 03:22:27;;;;;;;;;;;0.00;99.90;;;;;;5053889;28;19988;-64
2021/03/03 03:24:56;;;;;;;;;;;-0.20;99.90;;;;;;5050170;28;20272;-64
2021/03/03 03:27:22;;;;;;;;;;;-0.20;99.90;;;;;;5050036;28;19923;-64
2021/03/03 03:29:47;;;;;;;;;;;-0.10;99.90;;;;;;5057692;28;20050;-64
2021/03/03 03:32:13;;;;;;;;;;;-0.10;99.90;;;;;;5059948;28;19913;-64
2021/03/03 03:34:39;;;;;;;;;;;-0.20;99.90;;;;;;5071522;28;19923;-65
2021/03/03 03:37:05;;;;;;;;;;;-0.20;99.90;;;;;;5062980;28;19913;-64
2021/03/03 03:39:31;;;;;;;;;;;-0.20;99.90;;;;;;5066097;28;19920;-64
2021/03/03 03:41:57;;;;;;;;;;;-0.40;99.90;;;;;;5054582;28;20376;-64
2021/03/03 03:44:24;;;;;;;;;;;-0.20;99.90;;;;;;5063116;28;20418;-64
2021/03/03 03:46:49;;;;;;;;;;;-0.10;99.90;;;;;;5067087;28;19916;-64
2021/03/03 03:49:15;;;;;;;;;;;-0.10;99.90;;;;;;5050130;28;20348;-64
2021/03/03 03:51:41;;;;;;;;;;;-0.10;99.90;;;;;;5061922;28;19940;-65
2021/03/03 03:54:09;;;;;;;;;;;-0.20;99.90;;;;;;5051608;28;19923;-65
2021/03/03 03:56:35;;;;;;;;;;;-0.40;99.90;;;;;;5057366;28;19958;-64
2021/03/03 03:59:00;;;;;;;;;;;-0.20;99.90;;;;;;5062704;28;20372;-64
2021/03/03 04:01:26;;;;;;;;;;;-0.10;99.90;;;;;;5050087;28;19917;-64
2021/03/03 04:03:51;;;;;;;;;;;-0.30;99.90;;;;;;5060492;28;19917;-64
2021/03/03 04:06:16;;;;;;;;;;;-0.30;99.90;;;;;;5054026;28;19994;-64
2021/03/03 04:08:42;;;;;;;;;;;-0.10;99.90;;;;;;5056857;28;19939;-64
2021/03/03 04:11:08;;;;;;;;;;;-0.20;99.90;;;;;;5067103;28;20252;-64
2021/03/03 04:13:33;;;;;;;;;;;-0.50;99.90;;;;;;5058825;28;19916;-64
2021/03/03 04:15:58;;;;;;;;;;;-0.30;99.90;;;;;;5054129;28;19917;-64
2021/03/03 04:18:24;;;;;;;;;;;-0.40;99.90;;;;;;5049416;28;19912;-64
2021/03/03 04:20:52;;;;;;;;;;;-0.30;99.90;;;;;;5043454;28;19990;-64
2021/03/03 04:23:17;;;;;;;;;;;0.10;99.90;;;;;;5063953;28;20268;-65
2021/03/03 04:25:43;;;;;;;;;;;-0.50;99.90;;;;;;5048429;28;19920;-64
2021/03/03 04:28:08;;;;;;;;;;;-0.20;99.90;;;;;;5060271;28;20015;-64
2021/03/03 04:30:35;;;;;;;;;;;-0.30;99.90;;;;;;5048732;28;19916;-64
2021/03/03 04:33:00;;;;;;;;;;;-0.20;99.90;;;;;;5058990;28;19958;-65
2021/03/03 04:35:26;;;;;;;;;;;-0.20;99.90;;;;;;5061981;28;19971;-64
2021/03/03 04:37:52;;;;;;;;;;;-0.30;99.90;;;;;;5045846;28;20311;-64
2021/03/03 04:40:20;;;;;;;;;;;-0.30;99.90;;;;;;5057496;28;19939;-64
2021/03/03 04:42:45;;;;;;;;;;;-0.20;99.90;;;;;;5048348;28;20123;-63
2021/03/03 04:45:12;;;;;;;;;;;-0.10;99.90;;;;;;5043819;28;19916;-65
2021/03/03 04:47:38;;;;;;;;;;;-0.10;99.90;;;;;;5047115;28;19920;-63
2021/03/03 04:50:04;;;;;;;;;;;-0.20;99.90;;;;;;5046282;28;20095;-63
2021/03/03 04:52:30;;;;;;;;;;;0.00;99.90;;;;;;5057837;28;19987;-63
2021/03/03 04:54:55;;;;;;;;;;;0.40;99.90;;;;;;5064066;28;20924;-63
2021/03/03 04:57:21;;;;;;;;;;;-0.10;99.90;;;;;;5043955;28;20017;-63
2021/03/03 04:59:46;;;;;;;;;;;0.00;99.90;;;;;;5060560;28;19928;-63
2021/03/03 05:02:12;;;;;;;;;;;0.10;99.90;;;;;;5043749;28;20482;-63
2021/03/03 05:04:37;;;;;;;;;;;0.20;99.90;;;;;;5042951;28;19939;-63
2021/03/03 05:07:03;;;;;;;;;;;0.30;99.90;;;;;;5064804;28;19943;-63
2021/03/03 05:09:28;;;;;;;;;;;0.20;99.90;;;;;;5058296;28;20058;-64
2021/03/03 05:11:54;;;;;;;;;;;0.30;99.90;;;;;;5064652;28;20473;-63
2021/03/03 05:14:19;;;;;;;;;;;0.20;99.90;;;;;;5045792;28;19987;-66
2021/03/03 05:16:45;;;;;;;;;;;0.20;99.90;;;;;;5060377;28;19920;-63
2021/03/03 05:19:10;;;;;;;;;;;0.40;99.90;;;;;;5050302;28;19924;-62
2021/03/03 05:21:36;;;;;;;;;;;0.20;99.90;;;;;;5059064;28;19913;-63
2021/03/03 05:24:01;;;;;;;;;;;0.50;99.90;;;;;;5064800;28;19916;-63
2021/03/03 05:26:27;;;;;;;;;;;0.40;99.90;;;;;;5064310;28;20064;-65
2021/03/03 05:28:52;;;;;;;;;;;0.50;99.90;;;;;;5061829;28;20315;-65
2021/03/03 05:31:18;;;;;;;;;;;0.70;99.90;;;;;;5052933;28;19917;-63
2021/03/03 05:33:43;;;;;;;;;;;0.30;99.90;;;;;;5049180;28;19939;-64
2021/03/03 05:36:09;;;;;;;;;;;0.10;99.90;;;;;;5063062;28;20057;-64
2021/03/03 05:38:35;;;;;;;;;;;0.10;99.90;;;;;;5048927;28;20378;-63
2021/03/03 05:41:01;;;;;;;;;;;0.20;99.90;;;;;;5058641;28;19960;-63
2021/03/03 05:43:27;;;;;;;;;;;0.70;99.90;;;;;;5066168;28;19952;-65
2021/03/03 05:45:52;;;;;;;;;;;0.20;99.90;;;;;;5058904;28;19943;-63
2021/03/03 05:48:21;;;;;;;;;;;0.20;99.90;;;;;;5060572;28;19921;-65
2021/03/03 05:50:51;;;;;;;;;;;0.10;99.90;;;;;;5038702;28;19999;-64
2021/03/03 05:53:17;;;;;;;;;;;0.50;99.90;;;;;;5053233;28;19963;-64
2021/03/03 05:55:42;;;;;;;;;;;0.70;99.90;;;;;;5060639;28;19960;-63
2021/03/03 05:58:09;;;;;;;;;;;0.60;99.90;;;;;;5053188;28;20011;-63
2021/03/03 06:00:36;;;;;;;;;;;0.60;99.90;;;;;;5064545;28;19916;-63
2021/03/03 06:03:02;;;;;;;;;;;0.70;99.90;;;;;;5047471;28;20421;-63
2021/03/03 06:05:28;;;;;;;;;;;0.70;99.90;;;;;;5056879;28;19921;-62
2021/03/03 06:07:53;;;;;;;;;;;0.80;99.90;;;;;;5065958;28;19935;-63
2021/03/03 06:10:19;;;;;;;;;;;0.60;99.90;;;;;;5046717;28;19964;-63
2021/03/03 06:12:44;;;;;;;;;;;0.50;99.90;;;;;;5059447;28;20017;-62
2021/03/03 06:15:10;;;;;;;;;;;0.60;99.90;;;;;;5049271;28;19927;-62
2021/03/03 06:17:36;;;;;;;;;;;0.60;99.90;;;;;;5041929;28;19917;-62
2021/03/03 06:20:02;;;;;;;;;;;0.70;99.90;;;;;;5046027;28;19923;-65
2021/03/03 06:22:28;;;;;;;;;;;0.50;99.90;;;;;;5058004;28;19958;-63
2021/03/03 06:24:57;;;;;;;;;;;0.50;99.90;;;;;;5056072;28;19987;-63
2021/03/03 06:27:23;;;;;;;;;;;0.50;99.90;;;;;;5064201;28;19974;-64
2021/03/03 06:30:03;;;;;;;;;;;0.60;99.90;;;;;;5041177;28;20486;-65
2021/03/03 06:32:29;;;;;;;;;;;0.50;99.90;;;;;;5043045;28;19920;-63
2021/03/03 06:34:54;;;;;;;;;;;0.90;99.90;;;;;;5049219;28;19922;-64
2021/03/03 06:37:20;;;;;;;;;;;0.60;99.90;;;;;;5054698;28;20624;-64
2021/03/03 06:39:45;;;;;;;;;;;0.70;99.90;;;;;;5049480;28;20371;-65
2021/03/03 06:42:24;;;;;;;;;;;0.70;99.90;;;;;;5042924;28;19979;-64
2021/03/03 06:44:51;;;;;;;;;;;0.80;99.90;;;;;;5043270;28;20354;-67
2021/03/03 06:47:16;;;;;;;;;;;0.70;99.90;;;;;;5049242;28;19970;-65
2021/03/03 06:49:43;;;;;;;;;;;0.90;99.90;;;;;;5053486;28;19916;-64
2021/03/03 06:52:09;;;;;;;;;;;1.00;99.90;;;;;;5045700;28;19948;-63
2021/03/03 06:54:34;;;;;;;;;;;0.80;99.90;;;;;;5044076;28;20287;-65
2021/03/03 06:57:03;;;;;;;;;;;1.00;99.90;;;;;;5060849;28;19955;-65
2021/03/03 06:59:32;;;;;;;;;;;0.80;99.90;;;;;;5048041;28;20685;-65
2021/03/03 07:01:59;;;;;;;;;;;1.10;99.90;;;;;;5058610;28;19924;-65
2021/03/03 07:04:35;;;;;;;;;;;1.10;99.90;;;;;;5065216;28;19924;-65
2021/03/03 07:07:10;;;;;;;;;;;1.10;99.90;;;;;;5047230;28;19929;-65
2021/03/03 07:09:37;;;;;;;;;;;1.10;99.90;;;;;;5053040;28;20368;-65
2021/03/03 07:12:07;;;;;;;;;;;1.40;99.90;;;;;;5046837;28;19923;-65
2021/03/03 07:14:32;;;;;;;;;;;1.40;99.90;;;;;;5044327;28;19973;-65
2021/03/03 07:17:07;;;;;;;;;;;1.40;99.90;;;;;;5061608;28;20402;-65
2021/03/03 07:19:33;;;;;;;;;;;1.40;99.90;;;;;;5045404;28;20053;-65
2021/03/03 07:21:59;;;;;;;;;;;1.70;99.90;;;;;;5057283;28;20309;-65
2021/03/03 07:24:25;;;;;;;;;;;1.60;99.90;;;;;;5049588;28;19923;-65
2021/03/03 07:26:50;;;;;;;;;;;1.80;99.90;;;;;;5047464;28;19920;-65
2021/03/03 07:29:16;;;;;;;;;;;1.90;99.90;;;;;;5064372;28;24471;-65
2021/03/03 07:31:42;;;;;;;;;;;2.00;99.90;;;;;;5061726;28;19924;-66
2021/03/03 07:34:07;;;;;;;;;;;2.10;99.90;;;;;;5044398;28;20004;-63
2021/03/03 07:36:34;;;;;;;;;;;1.90;99.90;;;;;;5044789;28;19974;-65
2021/03/03 07:39:01;;;;;;;;;;;2.30;99.90;;;;;;5050788;28;19943;-64
2021/03/03 07:41:27;;;;;;;;;;;2.30;99.90;;;;;;5062853;28;19917;-64
2021/03/03 07:43:54;;;;;;;;;;;2.70;99.90;;;;;;5046107;28;19917;-64
2021/03/03 07:46:19;;;;;;;;;;;2.40;99.90;;;;;;5059054;28;20156;-62
2021/03/03 07:48:49;;;;;;;;;;;2.70;99.90;;;;;;5050330;28;19917;-63
2021/03/03 07:51:15;;;;;;;;;;;2.70;99.90;;;;;;5043829;28;19927;-62
2021/03/03 07:53:41;;;;;;;;;;;2.70;99.90;;;;;;5046942;28;20067;-65
2021/03/03 07:56:08;;;;;;;;;;;3.00;99.90;;;;;;5052525;28;20614;-64
2021/03/03 07:58:35;;;;;;;;;;;3.10;99.90;;;;;;5062155;28;20335;-63
2021/03/03 08:01:01;;;;;;;;;;;3.20;99.90;;;;;;5066008;28;19916;-64
2021/03/03 08:03:45;;;;;;;;;;;3.10;99.90;;;;;;5049779;28;19962;-63
2021/03/03 08:06:19;;;;;;;;;;;3.40;99.90;;;;;;5055748;28;20720;-64
2021/03/03 08:09:05;;;;;;;;;;;3.50;99.90;;;;;;5047334;28;20376;-64
2021/03/03 08:11:32;;;;;;;;;;;3.70;99.90;;;;;;5047089;28;19917;-63
2021/03/03 08:13:58;;;;;;;;;;;3.90;99.90;;;;;;5060431;28;20003;-64
2021/03/03 08:16:23;;;;;;;;;;;4.20;99.90;;;;;;5052693;28;20023;-63
2021/03/03 08:18:49;;;;;;;;;;;4.50;99.90;;;;;;5042775;28;19956;-64
2021/03/03 08:21:14;;;;;;;;;;;4.30;99.90;;;;;;5050744;28;20330;-63
2021/03/03 08:23:41;;;;;;;;;;;4.60;99.90;;;;;;5062149;28;19947;-64
2021/03/03 08:26:06;;;;;;;;;;;4.80;99.90;;;;;;5048949;28;20429;-63
2021/03/03 08:28:33;;;;;;;;;;;4.70;99.90;;;;;;5050821;28;19919;-64
2021/03/03 08:31:08;;;;;;;;;;;4.90;99.90;;;;;;5044181;28;19921;-64
2021/03/03 08:33:34;;;;;;;;;;;4.80;99.90;;;;;;5060811;28;19948;-64
2021/03/03 08:35:59;;;;;;;;;;;5.40;99.90;;;;;;5048340;28;20355;-64
2021/03/03 08:38:25;;;;;;;;;;;5.10;99.90;;;;;;5061851;28;19935;-65
2021/03/03 08:40:50;;;;;;;;;;;5.30;99.90;;;;;;5049046;28;20307;-64
2021/03/03 08:43:35;;;;;;;;;;;5.40;99.90;;;;;;5044523;28;20387;-64
2021/03/03 08:46:20;;;;;;;;;;;5.20;99.90;;;;;;5058643;28;19920;-64
2021/03/03 08:48:52;;;;;;;;;;;5.60;99.90;;;;;;5050861;28;19913;-64
2021/03/03 08:51:21;;;;;;;;;;;5.50;99.90;;;;;;5045250;28;20003;-65
2021/03/03 08:53:51;;;;;;;;;;;5.50;99.90;;;;;;5058834;28;19952;-64
2021/03/03 08:56:37;;;;;;;;;;;5.70;99.90;;;;;;5050674;28;19916;-64
2021/03/03 08:59:21;;;;;;;;;;;5.90;99.90;;;;;;5042733;28;19943;-64
2021/03/03 09:01:48;;;;;;;;;;;;;;;;;;5043336;28;20219;-64
2021/03/03 09:04:14;;;;;;;;;;;;;;;;;;5046549;28;19946;-65
2021/03/03 09:06:41;;;;;;;;;;;;;;;;;;5058841;28;20395;-64
2021/03/03 09:09:07;;;;;;;;;;;;;;;;;;5066463;28;19912;-64
2021/03/03 09:11:36;;;;;;;;;;;;;;;;;;5060628;28;19970;-66
2021/03/03 09:14:06;;;;;;;;;;;;;;;;;;5061138;28;20431;-64
2021/03/03 09:16:45;;;;;;;;;;;;;;;;;;5049353;28;20319;-63
2021/03/03 09:19:13;;;;;;;;;;;;;;;;;;5052812;28;19921;-65
2021/03/03 09:21:40;;;;;;;;;;;;;;;;;;5066102;28;19986;-65
2021/03/03 09:24:07;;;;;;;;;;;;;;;;;;5044412;28;19935;-65
2021/03/03 09:26:34;;;;;;;;;;;;;;;;;;5056694;28;20428;-65
2021/03/03 09:29:01;;;;;;;;;;;;;;;;;;5047990;28;19923;-65
2021/03/03 09:31:30;;;;;;;;;;;;;;;;;;5046348;28;19917;-65
2021/03/03 09:33:57;;;;;;;;;;;;;;;;;;5063684;28;19920;-65
2021/03/03 09:36:23;;;;;;;;;;;7.90;99.90;;;;;;5048015;28;20474;-66
2021/03/03 09:38:49;;;;;;;;;;;;;;;;;;5056789;28;20012;-65
2021/03/03 09:41:19;;;;;;;;;;;;;;;;;;5049346;28;19939;-65
2021/03/03 09:43:56;;;;;;;;;;;8.20;99.90;;;;;;5047380;28;20478;-65
2021/03/03 09:46:22;;;;;;;;;;;;;;;;;;5061485;28;19929;-65
2021/03/03 09:48:48;;;;;;;;;;;;;;;;;;5048406;28;19916;-65
2021/03/03 09:51:13;;;;;;;;;;;;;;;;;;5058429;28;19927;-65
2021/03/03 09:53:39;;;;;;;;;;;;;;;;;;5065651;28;19913;-65
2021/03/03 09:56:05;;;;;;;;;;;;;;;;;;5056930;28;20042;-65
2021/03/03 09:58:31;;;;;;;;;;;;;;;;;;5059917;28;19924;-65
2021/03/03 10:00:57;;;;;;;;;;;;;;;;;;5049107;28;20057;-65
2021/03/03 10:03:23;;;;;;;;;;;;;;;;;;5054672;28;19927;-65
2021/03/03 10:05:49;;;;;;;;;;;;;;;;;;5048594;28;20807;-65
2021/03/03 10:08:15;;;;;;;;;;;;;;;;;;5042918;28;20047;-65
2021/03/03 10:10:41;;;;;;;;;;;;;;;;;;5056842;28;19913;-65
2021/03/03 10:13:07;;;;;;;;;;;;;;;;;;5051439;28;19997;-65
2021/03/03 10:15:32;;;;;;;;;;;;;;;;;;5055143;28;20315;-65
2021/03/03 10:17:58;;;;;;;;;;;;;;;;;;5064119;28;19913;-65
2021/03/03 10:20:24;;;;;;;;;;;;;;;;;;5042709;28;19943;-65
2021/03/03 10:22:50;;;;;;;;;;;;;;;;;;5045234;28;19924;-65
2021/03/03 10:25:16;;;;;;;;;;;;;;;;;;5043134;28;20004;-65
2021/03/03 10:27:42;;;;;;;;;;;;;;;;;;5054841;28;19928;-65
2021/03/03 10:30:08;;;;;;;;;;;;;;;;;;5058932;28;20430;-65
2021/03/03 10:32:34;;;;;;;;;;;;;;;;;;5045283;28;20386;-65
2021/03/03 10:35:00;;;;;;;;;;;;;;;;;;5057999;28;19924;-65
2021/03/03 10:37:25;;;;;;;;;;;;;;;;;;5056904;28;19917;-65
2021/03/03 10:39:51;;;;;;;;;;;;;;;;;;5043349;28;20317;-66
2021/03/03 10:42:17;;;;;;;;;;;;;;;;;;5061507;28;19923;-65
2021/03/03 10:44:49;;;;;;;;;;;;;;;;;;5047258;28;20344;-66
2021/03/03 10:47:15;;;;;;;;;;;;;;;;;;5058833;28;19917;-66
2021/03/03 10:49:41;;;;;;;;;;;;;;;;;;5049028;28;19923;-65
2021/03/03 10:52:06;;;;;;;;;;;;;;;;;;5037608;28;19971;-66
2021/03/03 10:54:32;;;;;;;;;;;;;;;;;;5061728;28;19917;-65
2021/03/03 10:56:58;;;;;;;;;;;;;;;;;;5050117;28;19916;-66
2021/03/03 10:59:24;;;;;;;;;;;;;;;;;;5065921;28;19928;-65
2021/03/03 11:01:52;;;;;;;;;;;;;;;;;;5047977;28;19995;-66
2021/03/03 11:04:18;;;;;;;;;;;;;;;;;;5050373;28;19924;-66
2021/03/03 11:06:44;;;;;;;;;;;;;;;;;;5063496;28;19921;-66
2021/03/03 11:09:10;;;;;;;;;;;;;;;;;;5048658;28;19913;-65
2021/03/03 11:11:36;;;;;;;;;;;;;;;;;;5048127;28;19916;-64
2021/03/03 11:14:02;;;;;;;;;;;;;;;;;;5053060;28;19982;-66
2021/03/03 11:16:28;;;;;;;;;;;;;;;;;;5050168;28;19916;-65
2021/03/03 11:18:54;;;;;;;;;;;;;;;;;;5065400;28;19919;-66
2021/03/03 11:21:20;;;;;;;;;;;;;;;;;;5067966;28;19912;-66
2021/03/03 11:23:46;;;;;;;;;;;;;;;;;;5060912;28;19936;-66
2021/03/03 11:26:12;;;;;;;;;;;;;;;;;;5053196;28;20506;-66
2021/03/03 11:28:38;;;;;;;;;;;;;;;;;;5050830;28;19995;-65
2021/03/03 11:31:04;;;;;;;;;;;;;;;;;;5067090;28;19923;-66
2021/03/03 11:33:30;;;;;;;;;;;;;;;;;;5053307;28;20038;-65
2021/03/03 11:35:56;;;;;;;;;;;;;;;;;;5056009;28;20000;-65
2021/03/03 11:38:22;;;;;;;;;;;;;;;;;;5051681;28;20682;-66
2021/03/03 11:40:48;;;;;;;;;;;;;;;;;;5048095;28;19920;-66
2021/03/03 11:43:14;;;;;;;;;;;;;;;;;;5065103;28;20014;-65
2021/03/03 11:45:40;;;;;;;;;;;;;;;;;;5052078;28;19941;-65
2021/03/03 11:48:06;;;;;;;;;;;;;;;;;;5060972;28;19928;-65
2021/03/03 11:50:31;;;;;;;;;;;;;;;;;;5053309;28;19953;-65
2021/03/03 11:52:57;;;;;;;;;;;;;;;;;;5047967;28;20539;-64
2021/03/03 11:55:23;;;;;;;;;;;;;;;;;;5061198;28;19924;-64
2021/03/03 11:57:49;;;;;;;;;;;;;;;;;;5068851;28;19970;-65
2021/03/03 12:00:15;;;;;;;;;;;;;;;;;;5057766;28;20406;-65
2021/03/03 12:02:41;;;;;;;;;;;;;;;;;;5052351;28;19927;-65
2021/03/03 12:05:07;;;;;;;;;;;;;;;;;;5048680;28;20318;-65
2021/03/03 12:07:33;;;;;;;;;;;;;;;;;;5061512;28;20596;-65
2021/03/03 12:09:59;;;;;;;;;;;;;;;;;;5050358;28;19939;-65
2021/03/03 12:12:24;;;;;;;;;;;;;;;;;;5042004;28;19921;-65
2021/03/03 12:14:50;;;;;;;;;;;;;;;;;;5064919;28;19996;-65
2021/03/03 12:17:16;;;;;;;;;;;;;;;;;;5042699;28;19916;-65
2021/03/03 12:19:42;;;;;;;;;;;;;;;;;;5063715;28;19923;-65
2021/03/03 12:22:08;;;;;;;;;;;;;;;;;;5048986;28;19917;-65
2021/03/03 12:24:34;;;;;;;;;;;;;;;;;;5057628;28;20364;-64
2021/03/03 12:27:00;;;;;;;;;;;;;;;;;;5062522;28;19951;-65
2021/03/03 12:29:26;;;;;;;;;;;;;;;;;;5048442;28;19913;-65
2021/03/03 12:31:52;;;;;;;;;;;;;;;;;;5064110;28;19929;-65
2021/03/03 12:34:17;;;;;;;;;;;;;;;;;;5052235;28;19923;-65
2021/03/03 12:36:43;;;;;;;;;;;;;;;;;;5054905;28;19924;-65
2021/03/03 12:39:09;;;;;;;;;;;;;;;;;;5045717;28;19920;-65
2021/03/03 12:41:35;;;;;;;;;;;;;;;;;;5045171;28;19926;-65
2021/03/03 12:44:02;;;;;;;;;;;;;;;;;;5061256;28;20483;-65
2021/03/03 12:46:27;;;;;;;;;;;;;;;;;;5044696;28;19966;-65
2021/03/03 12:48:53;;;;;;;;;;;;;;;;;;5041397;28;20376;-65
2021/03/03 12:51:19;;;;;;;;;;;;;;;;;;5056737;28;19917;-65
2021/03/03 12:53:46;;;;;;;;;;;;;;;;;;5055275;28;20697;-65
2021/03/03 12:56:12;;;;;;;;;;;;;;;;;;5034588;28;20004;-65
2021/03/03 12:58:37;;;;;;;;;;;;;;;;;;5029085;28;20331;-65
2021/03/03 13:01:03;;;;;;;;;;;;;;;;;;5054341;28;19917;-65
2021/03/03 13:03:29;;;;;;;;;;;;;;;;;;5063554;28;19921;-65
2021/03/03 13:05:56;;;;;;;;;;;;;;;;;;5057332;28;19916;-65
2021/03/03 13:08:22;;;;;;;;;;;;;;;;;;5056926;28;20031;-65
2021/03/03 13:10:48;;;;;;;;;;;;;;;;;;5051431;28;20033;-65
2021/03/03 13:13:14;;;;;;;;;;;;;;;;;;5054330;28;19916;-65
2021/03/03 13:15:40;;;;;;;;;;;;;;;;;;5065104;28;20567;-65
2021/03/03 13:18:05;;;;;;;;;;;;;;;;;;5062110;28;19921;-65
2021/03/03 13:20:31;;;;;;;;;;;;;;;;;;5057721;28;20612;-65
2021/03/03 13:22:57;;;;;;;;;;;;;;;;;;5044955;28;20388;-65
2021/03/03 13:25:23;;;;;;;;;;;;;;;;;;5038954;28;20005;-66
2021/03/03 13:27:49;;;;;;;;;;;;;;;;;;5061520;28;19917;-65
2021/03/03 13:30:15;;;;;;;;;;;;;;;;;;5045646;28;19916;-66
2021/03/03 13:32:41;;;;;;;;;;;;;;;;;;5059120;28;20037;-65
2021/03/03 13:35:07;;;;;;;;;;;;;;;;;;5052650;28;19977;-65
2021/03/03 13:37:33;;;;;;;;;;;;;;;;;;5040627;28;19917;-66
2021/03/03 13:39:59;;;;;;;;;;;;;;;;;;5062674;28;19963;-65
2021/03/03 13:42:24;;;;;;;;;;;;;;;;;;5048148;28;19913;-65
2021/03/03 13:44:50;;;;;;;;;;;;;;;;;;5057544;28;19966;-65
2021/03/03 13:47:16;;;;;;;;;;;;;;;;;;5049796;28;19921;-65
2021/03/03 13:49:42;;;;;;;;;;;;;;;;;;5055594;28;19948;-65
2021/03/03 13:52:08;;;;;;;;;;;;;;;;;;5060134;28;19938;-65
2021/03/03 13:54:34;;;;;;;;;;;;;;;;;;5048493;28;19923;-65
2021/03/03 13:57:00;;;;;;;;;;;;;;;;;;5056717;28;19912;-65
2021/03/03 13:59:26;;;;;;;;;;;;;;;;;;5048157;28;20332;-66
2021/03/03 14:01:54;;;;;;;;;;;;;;;;;;5047834;28;20107;-66
2021/03/03 14:04:20;;;;;;;;;;;;;;;;;;5046231;28;19921;-66
2021/03/03 14:06:46;;;;;;;;;;;;;;;;;;5047596;28;19921;-66
2021/03/03 14:09:12;;;;;;;;;;;;;;;;;;5054548;28;19916;-67
2021/03/03 14:11:37;;;;;;;;;;;;;;;;;;5060543;28;20734;-66
2021/03/03 14:14:03;;;;;;;;;;;;;;;;;;5057574;28;19938;-67
2021/03/03 14:16:29;;;;;;;;;;;;;;;;;;5042002;28;20400;-66
2021/03/03 14:18:55;;;;;;;;;;;;;;;;;;5064228;28;19923;-66
2021/03/03 14:21:22;;;;;;;;;;;12.50;96.60;;;;;;5056349;28;19913;-66
2021/03/03 14:23:48;;;;;;;;;;;12.50;96.90;;;;;;5046415;28;20011;-66
2021/03/03 14:26:13;;;;;;;;;;;12.40;97.20;;;;;;5053144;28;19927;-66
2021/03/03 14:28:39;;;;;;;;;;;12.40;97.50;;;;;;5057417;28;19913;-66
2021/03/03 14:31:04;;;;;;;;;;;12.50;97.50;;;;;;5060528;28;19917;-66
2021/03/03 14:33:30;;;;;;;;;;;12.60;97.80;;;;;;5055440;28;19916;-66
2021/03/03 14:35:57;;;;;;;;;;;;;;;;;;5065315;28;19921;-67
2021/03/03 14:38:24;;;;;;;;;;;;;;;;;;5057389;28;19974;-66
2021/03/03 14:40:51;;;;;;;;;;;;;;;;;;5061796;28;19917;-67
2021/03/03 14:43:18;;;;;;;;;;;;;;;;;;5042679;28;19919;-66
2021/03/03 14:45:44;;;;;;;;;;;;;;;;;;5055619;28;19913;-67
2021/03/03 14:48:11;;;;;;;;;;;;;;;;;;5065438;28;19999;-67
2021/03/03 14:50:38;;;;;;;;;;;;;;;;;;5039721;28;19917;-66
2021/03/03 14:53:05;;;;;;;;;;;;;;;;;;5049406;28;19933;-66
2021/03/03 14:55:31;;;;;;;;;;;;;;;;;;5042419;28;19917;-66
2021/03/03 14:57:58;;;;;;;;;;;;;;;;;;5054201;28;19990;-66
2021/03/03 15:00:24;;;;;;;;;;;;;;;;;;5058151;28;19974;-67
2021/03/03 15:02:50;;;;;;;;;;;12.10;97.50;;;;;;5041707;28;20408;-66
2021/03/03 15:05:16;;;;;;;;;;;12.40;98.20;;;;;;5055176;28;20093;-66
2021/03/03 15:07:41;;;;;;;;;;;12.00;98.00;;;;;;5045928;28;19924;-66
2021/03/03 15:10:07;;;;;;;;;;;12.20;98.20;;;;;;5040672;28;20258;-66
2021/03/03 15:12:32;;;;;;;;;;;12.00;98.10;;;;;;5059545;28;20329;-66
2021/03/03 15:14:58;;;;;;;;;;;12.30;98.40;;;;;;5058404;28;19924;-66